Terminal Aerodrome Forecast
Issued by NWS Brownsville, TX

Home | Current Version | Previous Version | Text Only | Print | Product List | Glossary On
Versions: 1 2 3 4 5 6 7 8 9 10 11 12 13 14
000
FTUS44 KBRO 251120
TAFBRO
TAF
KBRO 251120Z 2512/2612 16007KT P6SM SCT015
      TEMPO 2512/2515 BKN015
     FM251600 15010KT P6SM FEW040 SCT250
     FM260300 16008KT P6SM FEW250
      TEMPO 2608/2612 BKN025=

USA.gov is the U.S. government's official web portal to all federal, state and local government web resources and services.